sensor_id;sensor_type;location;lat;lon;timestamp;P1;durP1;ratioP1;P2;durP2;ratioP2
16577;SDS011;8401;52.528;13.340;2023-12-22T00:01:11;8.50;;;2.70;;
16577;SDS011;8401;52.528;13.340;2023-12-22T00:03:40;6.77;;;1.77;;
16577;SDS011;8401;52.528;13.340;2023-12-22T00:06:06;10.80;;;2.00;;
16577;SDS011;8401;52.528;13.340;2023-12-22T00:08:32;7.87;;;2.07;;
16577;SDS011;8401;52.528;13.340;2023-12-22T00:10:58;9.20;;;2.30;;
16577;SDS011;8401;52.528;13.340;2023-12-22T00:13:24;6.93;;;2.17;;
16577;SDS011;8401;52.528;13.340;2023-12-22T00:15:49;7.77;;;2.57;;
16577;SDS011;8401;52.528;13.340;2023-12-22T00:18:15;10.13;;;2.17;;
16577;SDS011;8401;52.528;13.340;2023-12-22T00:20:41;8.13;;;2.33;;
16577;SDS011;8401;52.528;13.340;2023-12-22T00:23:06;5.60;;;2.30;;
16577;SDS011;8401;52.528;13.340;2023-12-22T00:25:32;8.03;;;2.23;;
16577;SDS011;8401;52.528;13.340;2023-12-22T00:27:58;8.77;;;2.50;;
16577;SDS011;8401;52.528;13.340;2023-12-22T00:30:23;13.17;;;2.30;;
16577;SDS011;8401;52.528;13.340;2023-12-22T00:32:49;11.40;;;2.90;;
16577;SDS011;8401;52.528;13.340;2023-12-22T00:35:15;10.03;;;2.20;;
16577;SDS011;8401;52.528;13.340;2023-12-22T00:37:41;10.17;;;1.87;;
16577;SDS011;8401;52.528;13.340;2023-12-22T00:40:07;8.90;;;2.17;;
16577;SDS011;8401;52.528;13.340;2023-12-22T00:42:34;10.37;;;2.80;;
16577;SDS011;8401;52.528;13.340;2023-12-22T00:45:00;11.47;;;2.13;;
16577;SDS011;8401;52.528;13.340;2023-12-22T00:47:26;14.33;;;3.10;;
16577;SDS011;8401;52.528;13.340;2023-12-22T00:49:52;9.77;;;2.87;;
16577;SDS011;8401;52.528;13.340;2023-12-22T00:52:18;9.07;;;2.53;;
16577;SDS011;8401;52.528;13.340;2023-12-22T00:54:44;11.67;;;2.53;;
16577;SDS011;8401;52.528;13.340;2023-12-22T00:57:09;14.47;;;2.67;;
16577;SDS011;8401;52.528;13.340;2023-12-22T00:59:36;10.27;;;1.97;;
16577;SDS011;8401;52.528;13.340;2023-12-22T01:02:01;10.03;;;2.93;;
16577;SDS011;8401;52.528;13.340;2023-12-22T01:04:27;13.97;;;2.47;;
16577;SDS011;8401;52.528;13.340;2023-12-22T01:06:53;9.30;;;2.40;;
16577;SDS011;8401;52.528;13.340;2023-12-22T01:09:18;8.60;;;2.97;;
16577;SDS011;8401;52.528;13.340;2023-12-22T01:11:45;10.10;;;2.53;;
16577;SDS011;8401;52.528;13.340;2023-12-22T01:14:11;5.73;;;2.10;;
16577;SDS011;8401;52.528;13.340;2023-12-22T01:16:38;12.10;;;2.90;;
16577;SDS011;8401;52.528;13.340;2023-12-22T01:19:04;6.93;;;2.30;;
16577;SDS011;8401;52.528;13.340;2023-12-22T01:21:30;9.53;;;2.93;;
16577;SDS011;8401;52.528;13.340;2023-12-22T01:23:56;11.47;;;2.10;;
16577;SDS011;8401;52.528;13.340;2023-12-22T01:26:23;11.17;;;2.57;;
16577;SDS011;8401;52.528;13.340;2023-12-22T01:28:49;9.30;;;2.50;;
16577;SDS011;8401;52.528;13.340;2023-12-22T01:31:15;10.23;;;2.40;;
16577;SDS011;8401;52.528;13.340;2023-12-22T01:33:40;7.73;;;2.50;;
16577;SDS011;8401;52.528;13.340;2023-12-22T01:36:07;8.20;;;2.27;;
16577;SDS011;8401;52.528;13.340;2023-12-22T01:38:32;13.60;;;2.43;;
16577;SDS011;8401;52.528;13.340;2023-12-22T01:40:58;9.30;;;2.57;;
16577;SDS011;8401;52.528;13.340;2023-12-22T01:43:24;7.43;;;2.80;;
16577;SDS011;8401;52.528;13.340;2023-12-22T01:45:55;8.67;;;2.13;;
16577;SDS011;8401;52.528;13.340;2023-12-22T01:48:22;15.33;;;2.83;;
16577;SDS011;8401;52.528;13.340;2023-12-22T01:50:52;11.93;;;2.83;;
16577;SDS011;8401;52.528;13.340;2023-12-22T01:53:20;7.90;;;2.33;;
16577;SDS011;8401;52.528;13.340;2023-12-22T01:55:49;13.10;;;2.23;;
16577;SDS011;8401;52.528;13.340;2023-12-22T01:58:18;11.27;;;2.50;;
16577;SDS011;8401;52.528;13.340;2023-12-22T02:00:45;10.70;;;2.73;;
16577;SDS011;8401;52.528;13.340;2023-12-22T02:03:12;7.47;;;2.03;;
16577;SDS011;8401;52.528;13.340;2023-12-22T02:05:40;7.37;;;2.20;;
16577;SDS011;8401;52.528;13.340;2023-12-22T02:08:06;9.87;;;2.17;;
16577;SDS011;8401;52.528;13.340;2023-12-22T02:10:33;10.40;;;2.47;;
16577;SDS011;8401;52.528;13.340;2023-12-22T02:12:58;6.27;;;1.80;;
16577;SDS011;8401;52.528;13.340;2023-12-22T02:15:24;6.53;;;2.03;;
16577;SDS011;8401;52.528;13.340;2023-12-22T02:20:49;5.77;;;2.43;;
16577;SDS011;8401;52.528;13.340;2023-12-22T02:23:15;8.53;;;2.00;;
16577;SDS011;8401;52.528;13.340;2023-12-22T02:25:41;12.20;;;2.27;;
16577;SDS011;8401;52.528;13.340;2023-12-22T02:28:07;12.13;;;2.80;;
16577;SDS011;8401;52.528;13.340;2023-12-22T02:33:10;8.73;;;2.17;;
16577;SDS011;8401;52.528;13.340;2023-12-22T02:35:40;5.73;;;1.87;;
16577;SDS011;8401;52.528;13.340;2023-12-22T02:38:07;13.43;;;2.60;;
16577;SDS011;8401;52.528;13.340;2023-12-22T02:40:34;8.57;;;1.80;;
16577;SDS011;8401;52.528;13.340;2023-12-22T02:43:01;7.43;;;1.80;;
16577;SDS011;8401;52.528;13.340;2023-12-22T02:45:27;6.20;;;1.90;;
16577;SDS011;8401;52.528;13.340;2023-12-22T02:47:53;8.87;;;2.00;;
16577;SDS011;8401;52.528;13.340;2023-12-22T02:50:18;7.43;;;1.70;;
16577;SDS011;8401;52.528;13.340;2023-12-22T02:52:44;9.87;;;1.83;;
16577;SDS011;8401;52.528;13.340;2023-12-22T02:55:09;6.03;;;2.27;;
16577;SDS011;8401;52.528;13.340;2023-12-22T02:57:37;6.93;;;1.53;;
16577;SDS011;8401;52.528;13.340;2023-12-22T03:00:03;5.90;;;1.63;;
16577;SDS011;8401;52.528;13.340;2023-12-22T03:02:29;8.67;;;1.50;;
16577;SDS011;8401;52.528;13.340;2023-12-22T03:04:54;2.80;;;0.97;;
16577;SDS011;8401;52.528;13.340;2023-12-22T03:07:20;3.77;;;1.53;;
16577;SDS011;8401;52.528;13.340;2023-12-22T03:09:46;5.43;;;1.40;;
16577;SDS011;8401;52.528;13.340;2023-12-22T03:12:11;3.53;;;1.40;;
16577;SDS011;8401;52.528;13.340;2023-12-22T03:14:37;8.10;;;1.50;;
16577;SDS011;8401;52.528;13.340;2023-12-22T03:17:03;7.00;;;1.23;;
16577;SDS011;8401;52.528;13.340;2023-12-22T03:19:30;7.33;;;1.60;;
16577;SDS011;8401;52.528;13.340;2023-12-22T03:21:56;5.67;;;1.70;;
16577;SDS011;8401;52.528;13.340;2023-12-22T03:24:23;4.53;;;1.13;;
16577;SDS011;8401;52.528;13.340;2023-12-22T03:26:49;5.47;;;1.60;;
16577;SDS011;8401;52.528;13.340;2023-12-22T03:29:15;6.93;;;2.27;;
16577;SDS011;8401;52.528;13.340;2023-12-22T03:31:42;5.77;;;1.63;;
16577;SDS011;8401;52.528;13.340;2023-12-22T03:34:08;9.13;;;1.27;;
16577;SDS011;8401;52.528;13.340;2023-12-22T03:36:34;5.27;;;1.30;;
16577;SDS011;8401;52.528;13.340;2023-12-22T03:39:01;4.70;;;1.30;;
16577;SDS011;8401;52.528;13.340;2023-12-22T03:41:27;7.70;;;2.40;;
16577;SDS011;8401;52.528;13.340;2023-12-22T03:43:54;4.77;;;1.33;;
16577;SDS011;8401;52.528;13.340;2023-12-22T03:46:20;5.63;;;1.50;;
16577;SDS011;8401;52.528;13.340;2023-12-22T03:48:46;5.20;;;1.43;;
16577;SDS011;8401;52.528;13.340;2023-12-22T03:51:11;3.93;;;1.50;;
16577;SDS011;8401;52.528;13.340;2023-12-22T03:53:38;5.47;;;1.10;;
16577;SDS011;8401;52.528;13.340;2023-12-22T03:56:04;5.97;;;1.70;;
16577;SDS011;8401;52.528;13.340;2023-12-22T03:58:29;5.33;;;1.50;;
16577;SDS011;8401;52.528;13.340;2023-12-22T04:00:55;6.30;;;1.57;;
16577;SDS011;8401;52.528;13.340;2023-12-22T04:03:21;4.63;;;1.40;;
16577;SDS011;8401;52.528;13.340;2023-12-22T04:05:47;2.97;;;1.00;;
16577;SDS011;8401;52.528;13.340;2023-12-22T04:08:15;3.30;;;1.00;;
16577;SDS011;8401;52.528;13.340;2023-12-22T04:10:41;4.00;;;1.00;;
16577;SDS011;8401;52.528;13.340;2023-12-22T04:13:08;2.97;;;0.90;;
16577;SDS011;8401;52.528;13.340;2023-12-22T04:15:34;3.03;;;0.80;;
16577;SDS011;8401;52.528;13.340;2023-12-22T04:18:00;3.13;;;0.90;;
16577;SDS011;8401;52.528;13.340;2023-12-22T04:20:25;1.97;;;0.60;;
16577;SDS011;8401;52.528;13.340;2023-12-22T04:22:51;1.83;;;0.87;;
16577;SDS011;8401;52.528;13.340;2023-12-22T04:25:17;1.27;;;0.77;;
16577;SDS011;8401;52.528;13.340;2023-12-22T04:27:43;1.83;;;0.57;;
16577;SDS011;8401;52.528;13.340;2023-12-22T04:30:08;3.47;;;0.80;;
16577;SDS011;8401;52.528;13.340;2023-12-22T04:32:34;3.50;;;0.73;;
16577;SDS011;8401;52.528;13.340;2023-12-22T04:35:00;3.77;;;1.03;;
16577;SDS011;8401;52.528;13.340;2023-12-22T04:37:25;4.20;;;0.93;;
16577;SDS011;8401;52.528;13.340;2023-12-22T04:39:51;5.17;;;1.00;;
16577;SDS011;8401;52.528;13.340;2023-12-22T04:42:17;2.73;;;0.60;;
16577;SDS011;8401;52.528;13.340;2023-12-22T04:44:46;3.37;;;0.90;;
16577;SDS011;8401;52.528;13.340;2023-12-22T04:47:11;7.07;;;1.03;;
16577;SDS011;8401;52.528;13.340;2023-12-22T04:49:38;2.77;;;0.83;;
16577;SDS011;8401;52.528;13.340;2023-12-22T04:52:04;4.40;;;1.33;;
16577;SDS011;8401;52.528;13.340;2023-12-22T04:54:29;7.33;;;1.50;;
16577;SDS011;8401;52.528;13.340;2023-12-22T04:56:55;4.00;;;1.43;;
16577;SDS011;8401;52.528;13.340;2023-12-22T04:59:20;5.97;;;1.40;;
16577;SDS011;8401;52.528;13.340;2023-12-22T05:01:46;6.07;;;1.50;;
16577;SDS011;8401;52.528;13.340;2023-12-22T05:04:12;4.77;;;1.37;;
16577;SDS011;8401;52.528;13.340;2023-12-22T05:06:37;2.20;;;0.60;;
16577;SDS011;8401;52.528;13.340;2023-12-22T05:09:03;1.87;;;0.97;;
16577;SDS011;8401;52.528;13.340;2023-12-22T05:11:29;2.70;;;0.63;;
16577;SDS011;8401;52.528;13.340;2023-12-22T05:13:54;2.57;;;0.67;;
16577;SDS011;8401;52.528;13.340;2023-12-22T05:16:20;2.37;;;0.70;;
16577;SDS011;8401;52.528;13.340;2023-12-22T05:18:46;2.93;;;0.67;;
16577;SDS011;8401;52.528;13.340;2023-12-22T05:21:14;3.70;;;0.80;;
16577;SDS011;8401;52.528;13.340;2023-12-22T05:23:40;1.90;;;0.77;;
16577;SDS011;8401;52.528;13.340;2023-12-22T05:26:05;1.97;;;0.73;;
16577;SDS011;8401;52.528;13.340;2023-12-22T05:28:32;2.90;;;0.77;;
16577;SDS011;8401;52.528;13.340;2023-12-22T05:30:57;3.17;;;0.90;;
16577;SDS011;8401;52.528;13.340;2023-12-22T05:33:23;2.73;;;0.80;;
16577;SDS011;8401;52.528;13.340;2023-12-22T05:35:48;2.20;;;0.70;;
16577;SDS011;8401;52.528;13.340;2023-12-22T05:38:14;3.13;;;0.50;;
16577;SDS011;8401;52.528;13.340;2023-12-22T05:40:40;4.80;;;1.07;;
16577;SDS011;8401;52.528;13.340;2023-12-22T05:43:07;3.13;;;0.67;;
16577;SDS011;8401;52.528;13.340;2023-12-22T05:45:33;2.37;;;0.80;;
16577;SDS011;8401;52.528;13.340;2023-12-22T05:47:58;1.07;;;0.70;;
16577;SDS011;8401;52.528;13.340;2023-12-22T05:50:24;2.80;;;0.73;;
16577;SDS011;8401;52.528;13.340;2023-12-22T05:52:49;1.00;;;0.53;;
16577;SDS011;8401;52.528;13.340;2023-12-22T05:55:15;3.07;;;0.83;;
16577;SDS011;8401;52.528;13.340;2023-12-22T05:57:41;6.80;;;1.07;;
16577;SDS011;8401;52.528;13.340;2023-12-22T06:00:06;2.73;;;0.77;;
16577;SDS011;8401;52.528;13.340;2023-12-22T06:02:34;2.67;;;0.80;;
16577;SDS011;8401;52.528;13.340;2023-12-22T06:05:00;2.03;;;0.70;;
16577;SDS011;8401;52.528;13.340;2023-12-22T06:07:26;1.80;;;0.57;;
16577;SDS011;8401;52.528;13.340;2023-12-22T06:09:52;8.03;;;1.73;;
16577;SDS011;8401;52.528;13.340;2023-12-22T06:12:17;5.87;;;1.47;;
16577;SDS011;8401;52.528;13.340;2023-12-22T06:14:43;2.43;;;0.60;;
16577;SDS011;8401;52.528;13.340;2023-12-22T06:17:10;1.97;;;0.90;;
16577;SDS011;8401;52.528;13.340;2023-12-22T06:19:36;5.03;;;0.90;;
16577;SDS011;8401;52.528;13.340;2023-12-22T06:22:01;4.00;;;1.20;;
16577;SDS011;8401;52.528;13.340;2023-12-22T06:24:27;3.53;;;0.80;;
16577;SDS011;8401;52.528;13.340;2023-12-22T06:26:53;2.60;;;0.73;;
16577;SDS011;8401;52.528;13.340;2023-12-22T06:29:19;4.70;;;0.77;;
16577;SDS011;8401;52.528;13.340;2023-12-22T06:31:45;3.97;;;0.80;;
16577;SDS011;8401;52.528;13.340;2023-12-22T06:34:15;1.60;;;0.73;;
16577;SDS011;8401;52.528;13.340;2023-12-22T06:36:41;3.03;;;0.80;;
16577;SDS011;8401;52.528;13.340;2023-12-22T06:39:08;4.97;;;0.70;;
16577;SDS011;8401;52.528;13.340;2023-12-22T06:41:34;3.23;;;0.70;;
16577;SDS011;8401;52.528;13.340;2023-12-22T06:44:00;3.20;;;0.60;;
16577;SDS011;8401;52.528;13.340;2023-12-22T06:46:26;2.67;;;1.10;;
16577;SDS011;8401;52.528;13.340;2023-12-22T06:48:53;3.57;;;0.70;;
16577;SDS011;8401;52.528;13.340;2023-12-22T06:51:22;5.70;;;1.00;;
16577;SDS011;8401;52.528;13.340;2023-12-22T06:53:50;4.13;;;1.07;;
16577;SDS011;8401;52.528;13.340;2023-12-22T06:56:16;4.10;;;0.67;;
16577;SDS011;8401;52.528;13.340;2023-12-22T06:58:46;2.53;;;0.60;;
16577;SDS011;8401;52.528;13.340;2023-12-22T07:03:55;2.87;;;0.60;;
16577;SDS011;8401;52.528;13.340;2023-12-22T07:06:22;3.57;;;1.13;;
16577;SDS011;8401;52.528;13.340;2023-12-22T07:09:27;5.87;;;1.13;;
16577;SDS011;8401;52.528;13.340;2023-12-22T07:11:45;3.50;;;0.70;;
16577;SDS011;8401;52.528;13.340;2023-12-22T07:14:13;4.30;;;0.50;;
16577;SDS011;8401;52.528;13.340;2023-12-22T07:16:40;4.27;;;0.70;;
16577;SDS011;8401;52.528;13.340;2023-12-22T07:19:07;2.53;;;1.00;;
16577;SDS011;8401;52.528;13.340;2023-12-22T07:21:32;4.00;;;0.90;;
16577;SDS011;8401;52.528;13.340;2023-12-22T07:23:58;5.10;;;1.07;;
16577;SDS011;8401;52.528;13.340;2023-12-22T07:26:24;2.33;;;1.00;;
16577;SDS011;8401;52.528;13.340;2023-12-22T07:28:51;3.67;;;1.30;;
16577;SDS011;8401;52.528;13.340;2023-12-22T07:31:20;1.77;;;0.83;;
16577;SDS011;8401;52.528;13.340;2023-12-22T07:33:46;4.83;;;1.33;;
16577;SDS011;8401;52.528;13.340;2023-12-22T07:36:11;2.77;;;1.20;;
16577;SDS011;8401;52.528;13.340;2023-12-22T07:38:37;5.50;;;1.40;;
16577;SDS011;8401;52.528;13.340;2023-12-22T07:41:06;3.60;;;1.00;;
16577;SDS011;8401;52.528;13.340;2023-12-22T07:43:32;8.60;;;1.20;;
16577;SDS011;8401;52.528;13.340;2023-12-22T07:45:58;5.47;;;1.57;;
16577;SDS011;8401;52.528;13.340;2023-12-22T07:48:23;2.40;;;1.07;;
16577;SDS011;8401;52.528;13.340;2023-12-22T07:50:49;4.67;;;1.97;;
16577;SDS011;8401;52.528;13.340;2023-12-22T07:53:15;3.40;;;1.47;;
16577;SDS011;8401;52.528;13.340;2023-12-22T07:55:41;4.40;;;1.00;;
16577;SDS011;8401;52.528;13.340;2023-12-22T07:58:07;2.80;;;1.10;;
16577;SDS011;8401;52.528;13.340;2023-12-22T08:00:33;4.60;;;1.10;;
16577;SDS011;8401;52.528;13.340;2023-12-22T08:02:59;4.43;;;1.07;;
16577;SDS011;8401;52.528;13.340;2023-12-22T08:05:25;5.33;;;1.27;;
16577;SDS011;8401;52.528;13.340;2023-12-22T08:07:51;5.47;;;1.27;;
16577;SDS011;8401;52.528;13.340;2023-12-22T08:10:17;5.87;;;1.40;;
16577;SDS011;8401;52.528;13.340;2023-12-22T08:12:42;2.43;;;1.00;;
16577;SDS011;8401;52.528;13.340;2023-12-22T08:15:08;1.63;;;0.80;;
16577;SDS011;8401;52.528;13.340;2023-12-22T08:17:37;3.17;;;0.93;;
16577;SDS011;8401;52.528;13.340;2023-12-22T08:20:10;3.10;;;1.00;;
16577;SDS011;8401;52.528;13.340;2023-12-22T08:22:36;3.63;;;0.70;;
16577;SDS011;8401;52.528;13.340;2023-12-22T08:25:02;2.43;;;0.60;;
16577;SDS011;8401;52.528;13.340;2023-12-22T08:27:28;3.03;;;1.00;;
16577;SDS011;8401;52.528;13.340;2023-12-22T08:29:53;2.10;;;0.80;;
16577;SDS011;8401;52.528;13.340;2023-12-22T08:32:19;3.10;;;0.70;;
16577;SDS011;8401;52.528;13.340;2023-12-22T08:34:44;3.97;;;0.70;;
16577;SDS011;8401;52.528;13.340;2023-12-22T08:37:10;3.50;;;0.90;;
16577;SDS011;8401;52.528;13.340;2023-12-22T08:39:36;5.67;;;1.03;;
16577;SDS011;8401;52.528;13.340;2023-12-22T08:42:01;6.73;;;1.97;;
16577;SDS011;8401;52.528;13.340;2023-12-22T08:44:27;4.07;;;0.90;;
16577;SDS011;8401;52.528;13.340;2023-12-22T08:46:53;4.63;;;1.23;;
16577;SDS011;8401;52.528;13.340;2023-12-22T08:49:18;7.13;;;1.23;;
16577;SDS011;8401;52.528;13.340;2023-12-22T08:51:44;3.70;;;1.40;;
16577;SDS011;8401;52.528;13.340;2023-12-22T08:54:10;8.67;;;1.37;;
16577;SDS011;8401;52.528;13.340;2023-12-22T08:56:35;3.80;;;1.30;;
16577;SDS011;8401;52.528;13.340;2023-12-22T08:59:01;6.60;;;1.33;;
16577;SDS011;8401;52.528;13.340;2023-12-22T09:01:26;7.63;;;1.23;;
16577;SDS011;8401;52.528;13.340;2023-12-22T09:03:53;6.37;;;1.23;;
16577;SDS011;8401;52.528;13.340;2023-12-22T09:06:20;3.60;;;1.30;;
16577;SDS011;8401;52.528;13.340;2023-12-22T09:08:47;5.07;;;1.20;;
16577;SDS011;8401;52.528;13.340;2023-12-22T09:11:13;7.27;;;2.00;;
16577;SDS011;8401;52.528;13.340;2023-12-22T09:13:41;5.97;;;1.73;;
16577;SDS011;8401;52.528;13.340;2023-12-22T09:16:08;8.60;;;1.57;;
16577;SDS011;8401;52.528;13.340;2023-12-22T09:18:34;10.77;;;2.97;;
16577;SDS011;8401;52.528;13.340;2023-12-22T09:21:01;4.30;;;1.40;;
16577;SDS011;8401;52.528;13.340;2023-12-22T09:23:27;7.40;;;1.67;;
16577;SDS011;8401;52.528;13.340;2023-12-22T09:25:53;5.33;;;1.63;;
16577;SDS011;8401;52.528;13.340;2023-12-22T09:28:19;7.37;;;2.07;;
16577;SDS011;8401;52.528;13.340;2023-12-22T09:30:45;7.10;;;1.93;;
16577;SDS011;8401;52.528;13.340;2023-12-22T09:33:10;9.57;;;1.50;;
16577;SDS011;8401;52.528;13.340;2023-12-22T09:35:37;8.57;;;1.90;;
16577;SDS011;8401;52.528;13.340;2023-12-22T09:38:06;7.83;;;1.97;;
16577;SDS011;8401;52.528;13.340;2023-12-22T09:40:32;6.23;;;1.40;;
16577;SDS011;8401;52.528;13.340;2023-12-22T09:42:59;6.17;;;1.70;;
16577;SDS011;8401;52.528;13.340;2023-12-22T09:45:27;11.30;;;2.13;;
16577;SDS011;8401;52.528;13.340;2023-12-22T09:47:53;7.47;;;1.17;;
16577;SDS011;8401;52.528;13.340;2023-12-22T09:50:20;6.97;;;1.37;;
16577;SDS011;8401;52.528;13.340;2023-12-22T09:52:46;10.67;;;1.47;;
16577;SDS011;8401;52.528;13.340;2023-12-22T09:55:12;6.20;;;1.83;;
16577;SDS011;8401;52.528;13.340;2023-12-22T09:57:39;10.53;;;2.03;;
16577;SDS011;8401;52.528;13.340;2023-12-22T10:00:09;16.07;;;2.10;;
16577;SDS011;8401;52.528;13.340;2023-12-22T10:02:37;11.13;;;1.90;;
16577;SDS011;8401;52.528;13.340;2023-12-22T10:05:04;7.67;;;2.20;;
16577;SDS011;8401;52.528;13.340;2023-12-22T10:07:30;8.40;;;2.47;;
16577;SDS011;8401;52.528;13.340;2023-12-22T10:09:58;8.70;;;1.50;;
16577;SDS011;8401;52.528;13.340;2023-12-22T10:12:26;6.63;;;2.93;;
16577;SDS011;8401;52.528;13.340;2023-12-22T10:14:55;11.67;;;2.37;;
16577;SDS011;8401;52.528;13.340;2023-12-22T10:17:21;9.60;;;3.80;;
16577;SDS011;8401;52.528;13.340;2023-12-22T10:19:47;11.00;;;2.33;;
16577;SDS011;8401;52.528;13.340;2023-12-22T10:22:13;8.93;;;3.43;;
16577;SDS011;8401;52.528;13.340;2023-12-22T10:27:07;13.73;;;2.53;;
16577;SDS011;8401;52.528;13.340;2023-12-22T10:29:33;14.57;;;2.70;;
16577;SDS011;8401;52.528;13.340;2023-12-22T10:32:00;5.73;;;2.07;;
16577;SDS011;8401;52.528;13.340;2023-12-22T10:34:32;12.67;;;1.93;;
16577;SDS011;8401;52.528;13.340;2023-12-22T10:36:58;8.87;;;2.10;;
16577;SDS011;8401;52.528;13.340;2023-12-22T10:39:28;10.80;;;2.83;;
16577;SDS011;8401;52.528;13.340;2023-12-22T10:41:57;9.87;;;2.03;;
16577;SDS011;8401;52.528;13.340;2023-12-22T10:44:27;9.93;;;2.83;;
16577;SDS011;8401;52.528;13.340;2023-12-22T10:46:53;8.83;;;1.90;;
16577;SDS011;8401;52.528;13.340;2023-12-22T10:49:20;11.23;;;1.97;;
16577;SDS011;8401;52.528;13.340;2023-12-22T10:51:46;5.03;;;1.80;;
16577;SDS011;8401;52.528;13.340;2023-12-22T10:54:12;10.43;;;2.27;;
16577;SDS011;8401;52.528;13.340;2023-12-22T10:56:38;10.77;;;2.20;;
16577;SDS011;8401;52.528;13.340;2023-12-22T10:59:05;10.47;;;2.20;;
16577;SDS011;8401;52.528;13.340;2023-12-22T11:01:31;9.00;;;1.97;;
16577;SDS011;8401;52.528;13.340;2023-12-22T11:04:03;6.93;;;2.00;;
16577;SDS011;8401;52.528;13.340;2023-12-22T11:06:34;6.63;;;1.43;;
16577;SDS011;8401;52.528;13.340;2023-12-22T11:09:03;4.10;;;1.37;;
16577;SDS011;8401;52.528;13.340;2023-12-22T11:11:33;6.10;;;1.40;;
16577;SDS011;8401;52.528;13.340;2023-12-22T11:14:01;12.20;;;2.07;;
16577;SDS011;8401;52.528;13.340;2023-12-22T11:16:30;6.07;;;1.53;;
16577;SDS011;8401;52.528;13.340;2023-12-22T11:19:03;10.00;;;2.07;;
16577;SDS011;8401;52.528;13.340;2023-12-22T11:21:29;10.43;;;2.13;;
16577;SDS011;8401;52.528;13.340;2023-12-22T11:23:56;6.37;;;1.90;;
16577;SDS011;8401;52.528;13.340;2023-12-22T11:26:23;6.20;;;1.97;;
16577;SDS011;8401;52.528;13.340;2023-12-22T11:28:49;8.47;;;2.00;;
16577;SDS011;8401;52.528;13.340;2023-12-22T11:31:16;11.50;;;2.00;;
16577;SDS011;8401;52.528;13.340;2023-12-22T11:33:48;6.50;;;2.20;;
16577;SDS011;8401;52.528;13.340;2023-12-22T11:36:15;6.87;;;1.50;;
16577;SDS011;8401;52.528;13.340;2023-12-22T11:38:43;11.30;;;2.17;;
16577;SDS011;8401;52.528;13.340;2023-12-22T11:41:10;9.70;;;1.80;;
16577;SDS011;8401;52.528;13.340;2023-12-22T11:43:56;6.43;;;1.50;;
16577;SDS011;8401;52.528;13.340;2023-12-22T11:46:24;5.30;;;1.70;;
16577;SDS011;8401;52.528;13.340;2023-12-22T11:48:51;7.53;;;2.10;;
16577;SDS011;8401;52.528;13.340;2023-12-22T11:51:17;9.97;;;2.10;;
16577;SDS011;8401;52.528;13.340;2023-12-22T11:53:44;7.73;;;1.70;;
16577;SDS011;8401;52.528;13.340;2023-12-22T11:56:11;7.27;;;2.47;;
16577;SDS011;8401;52.528;13.340;2023-12-22T11:58:45;8.73;;;2.33;;
16577;SDS011;8401;52.528;13.340;2023-12-22T12:01:23;4.70;;;1.57;;
16577;SDS011;8401;52.528;13.340;2023-12-22T12:08:51;4.57;;;1.40;;
16577;SDS011;8401;52.528;13.340;2023-12-22T12:11:18;6.37;;;1.70;;
16577;SDS011;8401;52.528;13.340;2023-12-22T12:13:47;7.20;;;2.17;;
16577;SDS011;8401;52.528;13.340;2023-12-22T12:16:14;3.63;;;1.40;;
16577;SDS011;8401;52.528;13.340;2023-12-22T12:18:44;4.60;;;1.67;;
16577;SDS011;8401;52.528;13.340;2023-12-22T12:21:10;8.43;;;1.37;;
16577;SDS011;8401;52.528;13.340;2023-12-22T12:23:37;7.30;;;1.67;;
16577;SDS011;8401;52.528;13.340;2023-12-22T12:26:09;8.47;;;1.60;;
16577;SDS011;8401;52.528;13.340;2023-12-22T12:28:37;7.23;;;1.50;;
16577;SDS011;8401;52.528;13.340;2023-12-22T12:31:07;6.47;;;1.50;;
16577;SDS011;8401;52.528;13.340;2023-12-22T12:33:35;7.77;;;1.80;;
16577;SDS011;8401;52.528;13.340;2023-12-22T12:36:01;8.20;;;1.50;;
16577;SDS011;8401;52.528;13.340;2023-12-22T12:41:10;6.37;;;1.80;;
16577;SDS011;8401;52.528;13.340;2023-12-22T12:43:42;7.07;;;2.30;;
16577;SDS011;8401;52.528;13.340;2023-12-22T12:46:08;6.80;;;1.20;;
16577;SDS011;8401;52.528;13.340;2023-12-22T12:48:34;8.60;;;2.17;;
16577;SDS011;8401;52.528;13.340;2023-12-22T12:51:01;5.77;;;1.93;;
16577;SDS011;8401;52.528;13.340;2023-12-22T12:53:31;11.43;;;3.17;;
16577;SDS011;8401;52.528;13.340;2023-12-22T12:56:00;7.83;;;1.83;;
16577;SDS011;8401;52.528;13.340;2023-12-22T12:58:29;13.93;;;2.27;;
16577;SDS011;8401;52.528;13.340;2023-12-22T13:01:06;10.80;;;2.07;;
16577;SDS011;8401;52.528;13.340;2023-12-22T13:03:33;5.90;;;1.97;;
16577;SDS011;8401;52.528;13.340;2023-12-22T13:06:15;3.47;;;1.10;;
16577;SDS011;8401;52.528;13.340;2023-12-22T13:08:46;6.50;;;2.10;;
16577;SDS011;8401;52.528;13.340;2023-12-22T13:11:22;10.03;;;2.17;;
16577;SDS011;8401;52.528;13.340;2023-12-22T13:13:49;9.03;;;1.70;;
16577;SDS011;8401;52.528;13.340;2023-12-22T13:16:25;4.53;;;1.53;;
16577;SDS011;8401;52.528;13.340;2023-12-22T13:18:54;11.07;;;2.10;;
16577;SDS011;8401;52.528;13.340;2023-12-22T13:21:24;10.23;;;2.03;;
16577;SDS011;8401;52.528;13.340;2023-12-22T13:26:39;10.43;;;1.60;;
16577;SDS011;8401;52.528;13.340;2023-12-22T13:29:09;8.57;;;1.80;;
16577;SDS011;8401;52.528;13.340;2023-12-22T13:31:36;8.20;;;2.03;;
16577;SDS011;8401;52.528;13.340;2023-12-22T13:34:03;7.83;;;1.60;;
16577;SDS011;8401;52.528;13.340;2023-12-22T13:36:37;8.50;;;2.37;;
16577;SDS011;8401;52.528;13.340;2023-12-22T13:39:04;10.73;;;1.70;;
16577;SDS011;8401;52.528;13.340;2023-12-22T13:41:48;9.33;;;1.97;;
16577;SDS011;8401;52.528;13.340;2023-12-22T13:44:14;8.20;;;1.40;;
16577;SDS011;8401;52.528;13.340;2023-12-22T13:46:40;6.77;;;1.67;;
16577;SDS011;8401;52.528;13.340;2023-12-22T13:49:08;8.20;;;1.87;;
16577;SDS011;8401;52.528;13.340;2023-12-22T13:51:44;11.97;;;2.20;;
16577;SDS011;8401;52.528;13.340;2023-12-22T13:54:12;9.93;;;2.50;;
16577;SDS011;8401;52.528;13.340;2023-12-22T13:56:39;7.90;;;2.00;;
16577;SDS011;8401;52.528;13.340;2023-12-22T13:59:05;12.33;;;1.80;;
16577;SDS011;8401;52.528;13.340;2023-12-22T14:01:31;6.40;;;1.90;;
16577;SDS011;8401;52.528;13.340;2023-12-22T14:03:58;10.07;;;2.00;;
16577;SDS011;8401;52.528;13.340;2023-12-22T14:06:25;8.53;;;1.90;;
16577;SDS011;8401;52.528;13.340;2023-12-22T14:08:51;6.20;;;1.67;;
16577;SDS011;8401;52.528;13.340;2023-12-22T14:11:17;6.60;;;1.40;;
16577;SDS011;8401;52.528;13.340;2023-12-22T14:13:43;6.50;;;2.17;;
16577;SDS011;8401;52.528;13.340;2023-12-22T14:16:09;5.73;;;2.03;;
16577;SDS011;8401;52.528;13.340;2023-12-22T14:18:35;5.47;;;1.53;;
16577;SDS011;8401;52.528;13.340;2023-12-22T14:21:00;5.27;;;1.60;;
16577;SDS011;8401;52.528;13.340;2023-12-22T14:23:26;6.80;;;1.80;;
16577;SDS011;8401;52.528;13.340;2023-12-22T14:25:55;10.23;;;1.90;;
16577;SDS011;8401;52.528;13.340;2023-12-22T14:28:20;5.63;;;1.57;;
16577;SDS011;8401;52.528;13.340;2023-12-22T14:30:46;5.60;;;1.40;;
16577;SDS011;8401;52.528;13.340;2023-12-22T14:33:11;6.77;;;1.40;;
16577;SDS011;8401;52.528;13.340;2023-12-22T14:35:38;4.27;;;1.40;;
16577;SDS011;8401;52.528;13.340;2023-12-22T14:38:03;3.63;;;1.37;;
16577;SDS011;8401;52.528;13.340;2023-12-22T14:40:29;7.10;;;1.20;;
16577;SDS011;8401;52.528;13.340;2023-12-22T14:42:55;3.63;;;1.20;;
16577;SDS011;8401;52.528;13.340;2023-12-22T14:45:20;5.47;;;1.10;;
16577;SDS011;8401;52.528;13.340;2023-12-22T14:47:47;5.33;;;1.33;;
16577;SDS011;8401;52.528;13.340;2023-12-22T14:50:13;3.90;;;1.10;;
16577;SDS011;8401;52.528;13.340;2023-12-22T14:52:39;3.27;;;1.03;;
16577;SDS011;8401;52.528;13.340;2023-12-22T14:55:05;3.50;;;1.03;;
16577;SDS011;8401;52.528;13.340;2023-12-22T14:57:31;3.60;;;0.90;;
16577;SDS011;8401;52.528;13.340;2023-12-22T14:59:58;8.37;;;1.40;;
16577;SDS011;8401;52.528;13.340;2023-12-22T15:02:24;5.30;;;1.10;;
16577;SDS011;8401;52.528;13.340;2023-12-22T15:04:50;4.90;;;1.10;;